Portada
METAR-TAF:

METAR-TAF

Aeropuertos :

Aeropuerto de Logroño-Agoncillo

Logroño, España

latitud: 42-27N, longitud: 002-20W, altitud: 353 m

Observación

El informe se hizo hace 29 minutos, a las 21:30 UTC
Viento 1 kt con dirección variable
Temperatura 14°C
Humedad 67%
Presión 1016 hPa
Visibilidad 10 km o más
sin nubes por debajo de 1500 m y sin presencia de cumulonimbus.

METAR: LELO 162130Z AUTO VRB01KT CAVOK 14/08 Q1016

Hora: 23:59 (21:59 UTC)

Pronóstico

El informe se hizo hace 4 horas y 59 minutos, a las 17:00 UTC
Pronóstico válido del 16 a las 18 UTC al 17 a las 03 UTC
Viento 5 kt con dirección variable
Visibilidad 10 km o más
Nubes dispersas a una altura de 4500 ft

TAF: LELO 161700Z 1618/1703 VRB05KT 9999 SCT045

Observaciones y pronósticos meteorológicos de más de 4000 aeropuertos (mensajes METAR y TAF).

Los puntos amarillos y rojos representan las estaciones disponibles.

Ponga el ratón en el punto deseado para ver el nombre de la estación.

Haga clic para ver las observaciones y los pronósticos meteorológicos.

Para cambiar el mapa : haga clic en los botones verdes con una cruz de color negro para hacer un zoom, en el botón verde con un guión para alejar o en las flechas verdes para mapas adyacentes.


METAR-TAF: